Time;durP1;ratioP1;P1;durP2;ratioP2;P2;SDS_P1;SDS_P2;PMS_P1;PMS_P2;Temp;Humidity;BMP_temperature;BMP_pressure;BME280_temperature;BME280_humidity;BME280_pressure;Samples;Min_cycle;Max_cycle;Signal;HPM_P1;HPM_P2
2021/09/02 00:00:25;;;;;;;16.27;8.57;;;;;;;;;;7370653;19;20019;-68
2021/09/02 00:02:51;;;;;;;14.32;8.40;;;;;;;;;;7368463;19;21066;-68
2021/09/02 00:05:17;;;;;;;14.23;8.25;;;;;;;;;;7371243;19;20053;-68
2021/09/02 00:07:42;;;;;;;20.63;7.68;;;12.40;99.90;;;;;;7367496;19;20010;-68
2021/09/02 00:10:08;;;;;;;13.30;7.40;;;12.70;99.90;;;;;;7367480;19;20014;-68
2021/09/02 00:12:33;;;;;;;13.50;7.55;;;12.90;99.90;;;;;;7368893;19;20021;-68
2021/09/02 00:14:59;;;;;;;13.63;7.32;;;12.80;99.90;;;;;;7366939;19;20014;-68
2021/09/02 00:17:24;;;;;;;14.20;6.45;;;12.60;99.90;;;;;;7365282;19;20107;-68
2021/09/02 00:19:50;;;;;;;14.23;7.32;;;12.60;99.90;;;;;;7368050;19;20053;-68
2021/09/02 00:22:15;;;;;;;13.45;7.80;;;12.50;99.90;;;;;;7366568;19;20097;-68
2021/09/02 00:24:41;;;;;;;11.50;8.18;;;12.50;99.90;;;;;;7371254;19;20506;-68
2021/09/02 00:27:07;;;;;;;22.95;9.90;;;;;;;;;;7370676;19;20011;-68
2021/09/02 00:29:32;;;;;;;14.77;9.13;;;12.60;99.90;;;;;;7373302;19;20029;-68
2021/09/02 00:31:58;;;;;;;14.55;9.90;;;12.70;99.90;;;;;;7372577;19;20026;-68
2021/09/02 00:34:23;;;;;;;18.25;10.38;;;12.80;99.90;;;;;;7374992;19;20050;-68
2021/09/02 00:36:48;;;;;;;15.68;9.75;;;12.80;99.90;;;;;;7374723;19;20126;-68
2021/09/02 00:39:14;;;;;;;16.33;10.05;;;12.90;99.90;;;;;;7372182;19;20022;-68
2021/09/02 00:41:39;;;;;;;15.75;10.23;;;13.00;99.90;;;;;;7374449;19;20018;-68
2021/09/02 00:44:05;;;;;;;16.45;10.18;;;13.00;99.90;;;;;;7373604;19;20854;-68
2021/09/02 00:46:30;;;;;;;17.75;9.82;;;13.00;99.90;;;;;;7374105;19;20050;-68
2021/09/02 00:48:56;;;;;;;15.60;9.93;;;13.00;99.90;;;;;;7372422;19;20014;-68
2021/09/02 00:51:21;;;;;;;20.98;9.73;;;13.00;99.90;;;;;;7371641;19;20014;-68
2021/09/02 00:53:47;;;;;;;18.38;9.55;;;12.90;99.90;;;;;;7372551;19;20022;-68
2021/09/02 00:56:12;;;;;;;14.57;9.30;;;12.80;99.90;;;;;;7372805;19;20025;-68
2021/09/02 00:58:38;;;;;;;17.15;9.38;;;12.80;99.90;;;;;;7369987;19;20022;-68
2021/09/02 01:01:03;;;;;;;16.30;9.73;;;12.70;99.90;;;;;;7371831;19;20093;-68
2021/09/02 01:03:29;;;;;;;16.27;10.02;;;12.70;99.90;;;;;;7371161;19;20022;-68
2021/09/02 01:05:54;;;;;;;21.23;10.50;;;12.60;99.90;;;;;;7374980;19;20010;-68
2021/09/02 01:08:20;;;;;;;15.88;9.43;;;12.60;99.90;;;;;;7369350;19;21004;-68
2021/09/02 01:10:45;;;;;;;20.08;9.95;;;12.20;99.90;;;;;;7372571;19;20932;-68
2021/09/02 01:13:11;;;;;;;12.85;9.20;;;12.50;99.90;;;;;;7229764;19;2804761;-68
2021/09/02 01:15:36;;;;;;;14.93;9.18;;;12.50;99.90;;;;;;7374055;19;20022;-68
2021/09/02 01:18:02;;;;;;;14.25;9.27;;;12.50;99.90;;;;;;7372850;19;20026;-68
2021/09/02 01:20:27;;;;;;;15.60;9.75;;;12.40;99.90;;;;;;7375002;19;20035;-68
2021/09/02 01:22:53;;;;;;;16.92;9.35;;;12.40;99.90;;;;;;7377020;19;20022;-68
2021/09/02 01:25:18;;;;;;;15.98;10.10;;;12.40;99.90;;;;;;7380342;19;20025;-69
2021/09/02 01:27:44;;;;;;;16.17;9.43;;;12.30;99.90;;;;;;7380354;19;20022;-68
2021/09/02 01:30:09;;;;;;;17.08;9.35;;;12.30;99.90;;;;;;7381123;19;20058;-68
2021/09/02 01:32:35;;;;;;;14.90;9.15;;;11.80;99.90;;;;;;7377195;19;20014;-61
2021/09/02 01:35:00;;;;;;;17.77;10.07;;;12.20;99.90;;;;;;7378264;19;20060;-61
2021/09/02 01:37:26;;;;;;;17.23;8.85;;;12.20;99.90;;;;;;7370472;19;20014;-61
2021/09/02 01:39:51;;;;;;;13.43;8.77;;;12.20;99.90;;;;;;7372783;19;20026;-61
2021/09/02 01:42:17;;;;;;;20.77;10.02;;;12.20;99.90;;;;;;7373766;19;20014;-61
2021/09/02 01:44:42;;;;;;;16.55;9.10;;;12.30;99.90;;;;;;7373489;19;20867;-61
2021/09/02 01:47:08;;;;;;;15.60;9.00;;;12.10;99.90;;;;;;7373666;19;20039;-61
2021/09/02 01:49:33;;;;;;;16.55;8.95;;;12.10;99.90;;;;;;7371268;19;20483;-61
2021/09/02 01:51:59;;;;;;;15.93;9.68;;;12.10;99.90;;;;;;7372010;19;20026;-61
2021/09/02 01:54:24;;;;;;;15.80;9.70;;;12.10;99.90;;;;;;7373981;19;20632;-61
2021/09/02 01:56:50;;;;;;;15.50;9.68;;;12.10;99.90;;;;;;7372277;19;20025;-61
2021/09/02 01:59:15;;;;;;;15.77;8.98;;;12.20;99.90;;;;;;7374715;19;20047;-61
2021/09/02 02:01:44;;;;;;;20.88;9.98;;;12.20;99.90;;;;;;7374523;19;20015;-61
2021/09/02 02:04:10;;;;;;;15.98;9.70;;;12.30;99.90;;;;;;7374701;19;20484;-61
2021/09/02 02:06:35;;;;;;;19.55;10.95;;;12.20;99.90;;;;;;7376940;19;20026;-61
2021/09/02 02:09:01;;;;;;;17.58;9.90;;;12.30;99.90;;;;;;7372996;19;20031;-61
2021/09/02 02:11:26;;;;;;;17.67;10.38;;;12.30;99.90;;;;;;7376213;19;20018;-61
2021/09/02 02:13:51;;;;;;;17.60;9.98;;;12.30;99.90;;;;;;7374599;19;20023;-61
2021/09/02 02:16:17;;;;;;;17.02;10.10;;;12.20;99.90;;;;;;7377246;19;20022;-61
2021/09/02 02:18:42;;;;;;;17.05;10.30;;;12.20;99.90;;;;;;7374238;19;20628;-61
2021/09/02 02:21:08;;;;;;;19.92;10.13;;;12.10;99.90;;;;;;7373325;19;20454;-61
2021/09/02 02:23:33;;;;;;;18.30;8.85;;;12.10;99.90;;;;;;7373047;19;20007;-61
2021/09/02 02:25:59;;;;;;;14.45;8.73;;;12.10;99.90;;;;;;7374922;19;20019;-61
2021/09/02 02:28:24;;;;;;;13.63;7.82;;;12.00;99.90;;;;;;7370581;19;20741;-61
2021/09/02 02:30:50;;;;;;;16.50;7.25;;;12.00;99.90;;;;;;7373966;19;20029;-61
2021/09/02 02:33:15;;;;;;;16.65;8.13;;;11.90;99.90;;;;;;7371317;19;20025;-61
2021/09/02 02:35:41;;;;;;;14.40;8.80;;;11.80;99.90;;;;;;7375692;19;20565;-61
2021/09/02 02:38:06;;;;;;;15.05;10.15;;;11.80;99.90;;;;;;7370961;19;20752;-61
2021/09/02 02:40:32;;;;;;;19.92;11.00;;;12.70;99.90;;;;;;7371939;19;20015;-61
2021/09/02 02:42:58;;;;;;;20.02;12.07;;;11.90;99.90;;;;;;7372788;19;20022;-61
2021/09/02 02:45:24;;;;;;;21.40;12.05;;;12.00;99.90;;;;;;7372323;19;20026;-61
2021/09/02 02:47:49;;;;;;;23.83;12.32;;;12.20;99.90;;;;;;7371832;19;20029;-61
2021/09/02 02:50:14;;;;;;;22.38;12.35;;;12.10;99.90;;;;;;7372282;19;20042;-61
2021/09/02 02:52:40;;;;;;;22.38;12.38;;;12.10;99.90;;;;;;7371607;19;20022;-61
2021/09/02 02:55:05;;;;;;;21.23;11.90;;;12.10;99.90;;;;;;7374547;19;20483;-61
2021/09/02 02:57:31;;;;;;;18.58;12.05;;;12.10;99.90;;;;;;7371208;19;20097;-61
2021/09/02 02:59:56;;;;;;;17.95;11.20;;;12.00;99.90;;;;;;7372615;19;20019;-61
2021/09/02 03:02:22;;;;;;;19.38;11.52;;;12.00;99.90;;;;;;7372493;19;20477;-61
2021/09/02 03:04:47;;;;;;;20.13;11.10;;;12.00;99.90;;;;;;7370651;19;20039;-61
2021/09/02 03:07:13;;;;;;;18.98;10.60;;;12.00;99.90;;;;;;7373438;19;20035;-61
2021/09/02 03:09:39;;;;;;;14.73;9.73;;;12.00;99.90;;;;;;7371551;19;20029;-61
2021/09/02 03:12:04;;;;;;;15.00;9.65;;;12.00;99.90;;;;;;7372265;19;20907;-61
2021/09/02 03:14:29;;;;;;;17.98;11.07;;;12.00;99.90;;;;;;7372443;19;20018;-61
2021/09/02 03:16:55;;;;;;;19.02;11.25;;;11.00;99.90;;;;;;7369985;19;20883;-61
2021/09/02 03:19:20;;;;;;;19.15;10.90;;;11.80;99.90;;;;;;7370213;19;20025;-61
2021/09/02 03:21:46;;;;;;;23.75;11.70;;;11.90;99.90;;;;;;7369064;19;20014;-61
2021/09/02 03:24:11;;;;;;;19.23;10.43;;;11.90;99.90;;;;;;7373671;19;20365;-61
2021/09/02 03:26:37;;;;;;;18.20;11.27;;;11.90;99.90;;;;;;7372343;19;20018;-61
2021/09/02 03:29:02;;;;;;;19.60;11.23;;;11.40;99.90;;;;;;7368534;19;20030;-61
2021/09/02 03:31:28;;;;;;;23.25;11.88;;;11.40;99.90;;;;;;7371037;19;20010;-61
2021/09/02 03:33:53;;;;;;;19.30;11.52;;;11.90;99.90;;;;;;7368513;19;20014;-61
2021/09/02 03:36:19;;;;;;;21.60;11.32;;;11.80;99.90;;;;;;7372200;19;20028;-61
2021/09/02 03:38:44;;;;;;;19.20;11.60;;;11.80;99.90;;;;;;7369692;19;20121;-61
2021/09/02 03:41:10;;;;;;;22.05;12.07;;;12.00;99.90;;;;;;7368635;19;20511;-61
2021/09/02 03:43:35;;;;;;;20.23;11.52;;;12.60;99.90;;;;;;7370907;19;20018;-61
2021/09/02 03:46:01;;;;;;;18.38;11.57;;;;;;;;;;7369979;19;20073;-61
2021/09/02 03:48:27;;;;;;;19.40;11.55;;;;;;;;;;7372158;19;20416;-61
2021/09/02 03:50:53;;;;;;;23.85;12.15;;;11.80;99.90;;;;;;7370265;19;20494;-61
2021/09/02 03:53:18;;;;;;;22.33;11.90;;;11.80;99.90;;;;;;7368223;19;20031;-61
2021/09/02 03:55:44;;;;;;;20.65;12.10;;;11.70;99.90;;;;;;7372468;19;20497;-61
2021/09/02 03:58:09;;;;;;;20.42;12.07;;;11.70;99.90;;;;;;7368402;19;20018;-61
2021/09/02 04:00:35;;;;;;;20.00;12.23;;;11.70;99.90;;;;;;7369137;19;20505;-61
2021/09/02 04:03:00;;;;;;;24.13;12.65;;;11.70;99.90;;;;;;7367486;19;20051;-61
2021/09/02 04:05:26;;;;;;;20.90;12.48;;;11.60;99.90;;;;;;7370598;19;20014;-61
2021/09/02 04:07:51;;;;;;;21.63;12.48;;;11.70;99.90;;;;;;7369392;19;20026;-61
2021/09/02 04:10:17;;;;;;;25.15;13.40;;;;;;;;;;7367943;19;20087;-61
2021/09/02 04:12:43;;;;;;;20.55;12.57;;;11.60;99.90;;;;;;7369463;19;20024;-61
2021/09/02 04:15:08;;;;;;;20.15;10.82;;;11.80;99.90;;;;;;7370783;19;20078;-61
2021/09/02 04:17:34;;;;;;;23.95;12.52;;;12.00;99.90;;;;;;7367707;19;20982;-60
2021/09/02 04:20:00;;;;;;;18.77;11.38;;;;;;;;;;7370994;19;20015;-60
2021/09/02 04:22:25;;;;;;;21.08;12.55;;;11.70;99.90;;;;;;7366847;19;20487;-60
2021/09/02 04:24:51;;;;;;;24.65;11.68;;;;;;;;;;7369584;19;20038;-60
2021/09/02 04:27:17;;;;;;;22.55;11.88;;;11.80;99.90;;;;;;7370194;19;20018;-61
2021/09/02 04:29:42;;;;;;;27.65;12.85;;;11.80;99.90;;;;;;7368385;19;20018;-60
2021/09/02 04:32:08;;;;;;;26.85;13.65;;;11.60;99.90;;;;;;7369071;19;20948;-60
2021/09/02 04:34:34;;;;;;;21.08;13.32;;;11.70;99.90;;;;;;7368943;19;20022;-61
2021/09/02 04:36:59;;;;;;;24.02;14.27;;;11.70;99.90;;;;;;7369261;19;20901;-61
2021/09/02 04:39:25;;;;;;;22.42;12.88;;;11.70;99.90;;;;;;7369716;19;20018;-60
2021/09/02 04:41:50;;;;;;;24.38;12.82;;;11.70;99.90;;;;;;7367495;19;20899;-60
2021/09/02 04:44:15;;;;;;;23.73;13.05;;;11.80;99.90;;;;;;7370324;19;20025;-60
2021/09/02 04:46:41;;;;;;;27.80;13.23;;;11.80;99.90;;;;;;7366434;19;20800;-61
2021/09/02 04:49:06;;;;;;;20.38;12.85;;;11.70;99.90;;;;;;7369087;19;20144;-61
2021/09/02 04:51:32;;;;;;;25.08;12.35;;;11.60;99.90;;;;;;7367438;19;20066;-61
2021/09/02 04:53:57;;;;;;;20.05;11.63;;;11.60;99.90;;;;;;7365572;19;20034;-60
2021/09/02 04:56:23;;;;;;;21.30;12.70;;;11.60;99.90;;;;;;7370145;19;20035;-61
2021/09/02 04:58:49;;;;;;;22.55;12.48;;;11.60;99.90;;;;;;7364805;19;20025;-60
2021/09/02 05:01:14;;;;;;;28.65;13.30;;;11.60;99.90;;;;;;7368646;19;20018;-61
2021/09/02 05:03:40;;;;;;;22.13;12.45;;;11.60;99.90;;;;;;7366267;19;20811;-61
2021/09/02 05:06:05;;;;;;;20.27;12.00;;;11.60;99.90;;;;;;7367847;19;20027;-60
2021/09/02 05:08:31;;;;;;;25.48;12.07;;;11.60;99.90;;;;;;7368594;19;20503;-60
2021/09/02 05:10:57;;;;;;;21.15;12.05;;;11.60;99.90;;;;;;7367105;19;20029;-60
2021/09/02 05:13:23;;;;;;;20.30;11.50;;;11.70;99.90;;;;;;7372562;19;20022;-60
2021/09/02 05:15:48;;;;;;;21.33;11.55;;;11.80;99.90;;;;;;7374362;19;20033;-60
2021/09/02 05:18:13;;;;;;;22.52;12.02;;;11.80;99.90;;;;;;7373469;19;20058;-61
2021/09/02 05:20:39;;;;;;;28.75;12.40;;;12.00;99.90;;;;;;7375268;19;20045;-60
2021/09/02 05:23:05;;;;;;;24.33;12.98;;;12.10;99.90;;;;;;7370129;19;20022;-61
2021/09/02 05:25:30;;;;;;;26.00;13.57;;;12.30;99.90;;;;;;7376130;19;20029;-61
2021/09/02 05:27:56;;;;;;;27.33;14.55;;;12.40;99.90;;;;;;7372513;19;20082;-61
2021/09/02 05:30:22;;;;;;;24.92;15.18;;;12.60;99.90;;;;;;7375688;19;20022;-61
2021/09/02 05:32:47;;;;;;;26.33;14.45;;;12.60;99.90;;;;;;7373826;19;20128;-61
2021/09/02 05:35:13;;;;;;;25.80;15.10;;;12.80;99.90;;;;;;7373578;19;20530;-61
2021/09/02 05:37:38;;;;;;;28.13;15.43;;;12.80;99.90;;;;;;7376531;19;20047;-60
2021/09/02 05:40:04;;;;;;;32.15;16.55;;;13.00;99.90;;;;;;7378859;19;20031;-61
2021/09/02 05:42:29;;;;;;;36.88;16.55;;;13.20;99.90;;;;;;7378080;19;20382;-61
2021/09/02 05:44:55;;;;;;;37.08;17.25;;;13.20;99.90;;;;;;7379722;19;20085;-61
2021/09/02 05:47:20;;;;;;;34.17;16.23;;;13.30;99.90;;;;;;7378005;19;20470;-61
2021/09/02 05:49:46;;;;;;;34.47;16.45;;;13.50;99.90;;;;;;7376642;19;20082;-61
2021/09/02 05:52:11;;;;;;;36.53;18.65;;;13.60;99.90;;;;;;7373495;19;20019;-61
2021/09/02 05:54:37;;;;;;;34.45;16.77;;;13.60;99.90;;;;;;7376286;19;20033;-61
2021/09/02 05:57:02;;;;;;;28.63;16.35;;;13.70;99.90;;;;;;7374638;19;20532;-61
2021/09/02 05:59:28;;;;;;;27.15;15.45;;;13.90;99.90;;;;;;7373734;19;20014;-61
2021/09/02 06:01:53;;;;;;;26.35;14.80;;;13.90;99.90;;;;;;7375067;19;20054;-61
2021/09/02 06:04:19;;;;;;;26.00;14.38;;;13.90;99.90;;;;;;7372805;19;20478;-61
2021/09/02 06:06:44;;;;;;;21.17;13.68;;;14.10;99.90;;;;;;7375409;19;20018;-61
2021/09/02 06:09:09;;;;;;;22.10;14.50;;;14.20;99.90;;;;;;7374216;19;20021;-61
2021/09/02 06:11:35;;;;;;;22.83;14.43;;;14.30;99.90;;;;;;7371379;19;21006;-61
2021/09/02 06:14:00;;;;;;;21.08;13.38;;;14.30;99.90;;;;;;7371454;19;20032;-61
2021/09/02 06:16:26;;;;;;;26.58;13.55;;;15.10;99.90;;;;;;7370921;19;20023;-61
2021/09/02 06:18:51;;;;;;;19.98;13.02;;;14.40;99.90;;;;;;7372789;19;20023;-61
2021/09/02 06:21:17;;;;;;;35.00;12.68;;;14.50;99.90;;;;;;7374674;19;20468;-61
2021/09/02 06:23:42;;;;;;;15.38;11.35;;;14.60;99.90;;;;;;7371216;19;20051;-61
2021/09/02 06:26:08;;;;;;;19.52;12.75;;;14.60;99.90;;;;;;7375975;19;20853;-61
2021/09/02 06:28:33;;;;;;;16.77;11.30;;;14.60;99.90;;;;;;7367757;19;20018;-61
2021/09/02 06:30:59;;;;;;;19.38;11.68;;;14.60;99.90;;;;;;7374987;19;20018;-61
2021/09/02 06:33:24;;;;;;;16.33;10.90;;;14.70;99.90;;;;;;7373889;19;20014;-61
2021/09/02 06:35:50;;;;;;;16.88;11.65;;;14.80;99.90;;;;;;7372123;19;20010;-61
2021/09/02 06:38:15;;;;;;;19.13;11.63;;;15.00;99.90;;;;;;7372691;19;20506;-61
2021/09/02 06:40:41;;;;;;;18.35;12.60;;;15.00;99.90;;;;;;7372411;19;20043;-61
2021/09/02 06:43:06;;;;;;;44.65;14.18;;;15.10;99.90;;;;;;7369836;19;20015;-61
2021/09/02 06:45:32;;;;;;;19.30;12.02;;;15.20;99.90;;;;;;7374230;19;20104;-61
2021/09/02 06:47:57;;;;;;;27.58;13.07;;;15.20;99.90;;;;;;7372049;19;20018;-61
2021/09/02 06:50:23;;;;;;;18.42;12.10;;;15.30;99.90;;;;;;7373581;19;20189;-61
2021/09/02 06:52:48;;;;;;;18.85;11.25;;;15.30;99.90;;;;;;7368584;19;20370;-61
2021/09/02 06:55:14;;;;;;;19.10;10.73;;;15.40;99.90;;;;;;7373726;19;20025;-61
2021/09/02 06:57:39;;;;;;;18.25;11.50;;;15.40;99.90;;;;;;7372586;19;20006;-61
2021/09/02 07:00:05;;;;;;;21.75;11.77;;;15.40;99.90;;;;;;7373029;19;20439;-61
2021/09/02 07:02:30;;;;;;;20.65;12.30;;;15.50;99.90;;;;;;7373161;19;20018;-61
2021/09/02 07:04:56;;;;;;;24.38;13.02;;;15.50;99.90;;;;;;7371021;19;20014;-61
2021/09/02 07:07:21;;;;;;;24.73;13.07;;;15.50;99.90;;;;;;7372766;19;20018;-61
2021/09/02 07:09:47;;;;;;;24.55;13.77;;;15.50;99.90;;;;;;7374241;19;20010;-61
2021/09/02 07:12:12;;;;;;;33.55;12.77;;;15.50;99.90;;;;;;7370368;19;20018;-64
2021/09/02 07:14:38;;;;;;;20.38;12.85;;;15.70;99.90;;;;;;7373265;19;20526;-63
2021/09/02 07:17:05;;;;;;;21.88;12.15;;;15.50;99.90;;;;;;7370251;19;20018;-63
2021/09/02 07:19:30;;;;;;;21.02;12.63;;;15.50;99.90;;;;;;7372043;19;20019;-63
2021/09/02 07:21:56;;;;;;;20.80;12.20;;;15.50;99.90;;;;;;7373050;19;20027;-63
2021/09/02 07:24:21;;;;;;;25.00;12.70;;;15.50;99.90;;;;;;7368678;19;20042;-63
2021/09/02 07:26:46;;;;;;;19.25;11.57;;;15.60;99.90;;;;;;7372763;19;20014;-63
2021/09/02 07:29:12;;;;;;;25.35;14.80;;;15.60;99.90;;;;;;7369741;19;20010;-63
2021/09/02 07:31:39;;;;;;;22.23;11.90;;;15.60;99.90;;;;;;7370474;19;20109;-61
2021/09/02 07:34:04;;;;;;;18.98;11.52;;;15.60;99.90;;;;;;7371437;19;20010;-61
2021/09/02 07:36:30;;;;;;;18.38;11.77;;;15.60;99.90;;;;;;7371579;19;20022;-61
2021/09/02 07:38:55;;;;;;;20.35;12.02;;;15.70;99.90;;;;;;7369318;19;20365;-61
2021/09/02 07:41:21;;;;;;;20.60;11.35;;;15.80;99.90;;;;;;7369928;19;20022;-61
2021/09/02 07:43:46;;;;;;;20.30;11.23;;;15.80;99.90;;;;;;7369049;19;20011;-61
2021/09/02 07:46:12;;;;;;;15.90;10.18;;;15.90;99.90;;;;;;7372969;19;20018;-61
2021/09/02 07:48:37;;;;;;;15.93;10.57;;;15.90;99.90;;;;;;7368696;19;20035;-62
2021/09/02 07:51:03;;;;;;;21.50;11.38;;;16.10;99.90;;;;;;7372991;19;20066;-62
2021/09/02 07:53:28;;;;;;;16.42;9.35;;;16.10;99.90;;;;;;7368640;19;20491;-61
2021/09/02 07:55:54;;;;;;;16.27;9.93;;;16.10;99.90;;;;;;7372260;19;20022;-60
2021/09/02 07:58:19;;;;;;;18.52;10.43;;;16.30;99.90;;;;;;7372393;19;20039;-59
2021/09/02 08:00:46;;;;;;;25.05;15.23;;;16.30;99.90;;;;;;7371333;19;20542;-60
2021/09/02 08:03:12;;;;;;;22.80;11.40;;;16.30;99.90;;;;;;7371667;19;20057;-60
2021/09/02 08:05:37;;;;;;;16.40;9.52;;;16.40;99.90;;;;;;7371279;19;20027;-60
2021/09/02 08:08:03;;;;;;;19.13;10.23;;;16.50;99.90;;;;;;7372403;19;20737;-59
2021/09/02 08:10:28;;;;;;;15.93;10.05;;;16.40;99.90;;;;;;7371451;19;20022;-59
2021/09/02 08:12:54;;;;;;;17.17;9.32;;;16.40;99.90;;;;;;7369617;19;20499;-59
2021/09/02 08:15:19;;;;;;;17.83;10.07;;;16.60;99.90;;;;;;7370339;19;20014;-60
2021/09/02 08:17:45;;;;;;;25.30;14.30;;;16.70;99.90;;;;;;7368530;19;20011;-60
2021/09/02 08:20:10;;;;;;;16.83;10.30;;;16.70;99.90;;;;;;7371583;19;20030;-60
2021/09/02 08:22:36;;;;;;;33.95;10.48;;;16.70;99.90;;;;;;7370780;19;20057;-60
2021/09/02 08:25:01;;;;;;;87.40;15.82;;;16.70;99.90;;;;;;7369072;19;20025;-60
2021/09/02 08:27:27;;;;;;;25.00;10.23;;;16.80;99.90;;;;;;7369656;19;20601;-60
2021/09/02 08:29:52;;;;;;;23.05;9.93;;;16.80;99.90;;;;;;7369041;19;20051;-60
2021/09/02 08:32:18;;;;;;;22.92;9.82;;;16.90;99.90;;;;;;7370942;19;20025;-59
2021/09/02 08:34:43;;;;;;;15.88;9.23;;;17.00;99.90;;;;;;7369195;19;20023;-60
2021/09/02 08:37:09;;;;;;;19.75;10.40;;;17.10;99.90;;;;;;7367628;19;20048;-60
2021/09/02 08:39:34;;;;;;;16.67;8.75;;;17.30;99.90;;;;;;7371352;19;20014;-60
2021/09/02 08:42:00;;;;;;;15.30;8.38;;;17.30;99.90;;;;;;7368446;19;20024;-60
2021/09/02 08:44:25;;;;;;;18.00;8.30;;;17.00;99.90;;;;;;7370766;19;20026;-59
2021/09/02 08:46:51;;;;;;;39.70;10.73;;;17.30;99.90;;;;;;7374146;19;20022;-60
2021/09/02 08:49:16;;;;;;;14.95;8.35;;;17.20;99.90;;;;;;7375945;19;20434;-59
2021/09/02 08:51:42;;;;;;;12.35;7.28;;;17.50;99.90;;;;;;7376634;19;20030;-63
2021/09/02 08:54:07;;;;;;;11.35;6.95;;;17.50;99.90;;;;;;7374572;19;20078;-60
2021/09/02 08:56:33;;;;;;;28.88;9.50;;;17.70;99.90;;;;;;7376698;19;20488;-60
2021/09/02 08:58:58;;;;;;;18.02;8.00;;;17.60;99.90;;;;;;7374921;19;20384;-60
2021/09/02 09:01:24;;;;;;;16.45;9.07;;;17.70;99.90;;;;;;7375439;19;20815;-60
2021/09/02 09:03:49;;;;;;;17.83;7.90;;;17.80;99.90;;;;;;7372631;19;20039;-60
2021/09/02 09:06:15;;;;;;;14.25;7.28;;;18.00;99.90;;;;;;7374186;19;20035;-60
2021/09/02 09:08:41;;;;;;;72.72;39.03;;;18.00;99.90;;;;;;7376061;19;20029;-60
2021/09/02 09:11:06;;;;;;;17.33;8.57;;;18.00;99.90;;;;;;7376473;19;20043;-60
2021/09/02 09:13:32;;;;;;;15.85;8.75;;;18.30;99.90;;;;;;7372249;19;20519;-60
2021/09/02 09:15:57;;;;;;;13.57;7.60;;;18.40;99.90;;;;;;7376415;19;20018;-59
2021/09/02 09:18:23;;;;;;;12.30;7.28;;;18.30;99.90;;;;;;7371163;19;20026;-59
2021/09/02 09:20:48;;;;;;;15.10;7.55;;;18.30;99.90;;;;;;7375831;19;20015;-60
2021/09/02 09:23:14;;;;;;;16.17;7.45;;;18.20;99.90;;;;;;7373684;19;20089;-60
2021/09/02 09:25:39;;;;;;;14.02;7.45;;;18.30;99.90;;;;;;7375481;19;20023;-60
2021/09/02 09:28:05;;;;;;;15.80;8.05;;;18.20;99.90;;;;;;7375694;19;20029;-60
2021/09/02 09:30:30;;;;;;;11.93;6.68;;;18.20;99.90;;;;;;7373984;19;20486;-60
2021/09/02 09:32:56;;;;;;;13.10;7.32;;;18.10;99.90;;;;;;7374056;19;20048;-59
2021/09/02 09:35:22;;;;;;;12.98;6.50;;;17.00;99.90;;;;;;7373162;19;20023;-60
2021/09/02 09:37:47;;;;;;;18.98;7.72;;;18.20;99.90;;;;;;7372648;19;20025;-60
2021/09/02 09:40:13;;;;;;;16.10;7.60;;;18.20;99.90;;;;;;7375037;19;20022;-60
2021/09/02 09:42:38;;;;;;;18.50;8.45;;;18.40;99.90;;;;;;7370811;19;20405;-60
2021/09/02 09:45:07;;;;;;;23.70;9.10;;;18.60;99.90;;;;;;7374475;19;20022;-60
2021/09/02 09:47:37;;;;;;;14.38;7.93;;;18.60;99.90;;;;;;7372187;19;20039;-60
2021/09/02 09:50:09;;;;;;;14.65;8.10;;;19.00;99.90;;;;;;7375050;19;20026;-60
2021/09/02 09:52:37;;;;;;;16.67;7.93;;;19.10;99.90;;;;;;7374869;19;20022;-60
2021/09/02 09:55:03;;;;;;;14.55;7.70;;;19.10;99.90;;;;;;7374481;19;20057;-60
2021/09/02 09:57:28;;;;;;;17.52;8.23;;;19.00;99.90;;;;;;7372612;19;20014;-60
2021/09/02 09:59:53;;;;;;;21.40;11.43;;;19.20;99.90;;;;;;7379137;19;20023;-60
2021/09/02 10:02:19;;;;;;;18.05;8.23;;;19.40;99.90;;;;;;7376663;19;20011;-60
2021/09/02 10:04:45;;;;;;;13.05;7.47;;;19.40;99.90;;;;;;7380776;19;20014;-60
2021/09/02 10:07:12;;;;;;;15.73;8.07;;;19.20;99.90;;;;;;7377976;19;20053;-60
2021/09/02 10:09:38;;;;;;;14.25;6.88;;;19.30;99.90;;;;;;7377363;19;20043;-60
2021/09/02 10:12:03;;;;;;;17.35;8.30;;;19.30;99.90;;;;;;7374432;19;20022;-60
2021/09/02 10:14:29;;;;;;;19.10;10.50;;;19.60;99.90;;;;;;7377150;19;20022;-60
2021/09/02 10:16:56;;;;;;;16.10;8.10;;;19.70;99.90;;;;;;7373415;19;20018;-60
2021/09/02 10:19:22;;;;;;;16.00;8.50;;;19.50;99.90;;;;;;7370559;19;20018;-60
2021/09/02 10:21:48;;;;;;;10.85;6.97;;;19.50;99.90;;;;;;7374977;19;20010;-60
2021/09/02 10:24:13;;;;;;;14.13;8.30;;;19.60;99.90;;;;;;7371226;19;20017;-60
2021/09/02 10:26:39;;;;;;;14.15;7.60;;;19.60;99.90;;;;;;7373972;19;20087;-60
2021/09/02 10:29:04;;;;;;;14.65;7.22;;;19.50;99.90;;;;;;7373236;19;20018;-59
2021/09/02 10:31:30;;;;;;;14.15;7.18;;;18.80;99.90;;;;;;7371392;19;20562;-60
2021/09/02 10:33:55;;;;;;;15.82;8.60;;;19.50;99.90;;;;;;7372179;19;20018;-60
2021/09/02 10:36:21;;;;;;;13.65;6.85;;;19.60;99.90;;;;;;7371733;19;20503;-60
2021/09/02 10:38:46;;;;;;;14.43;8.75;;;19.90;99.90;;;;;;7370773;19;20022;-60
2021/09/02 10:41:11;;;;;;;18.83;8.07;;;20.20;99.90;;;;;;7374378;19;20506;-60
2021/09/02 10:43:37;;;;;;;14.80;8.05;;;20.20;99.90;;;;;;7372206;19;20601;-60
2021/09/02 10:46:04;;;;;;;11.20;6.88;;;20.30;99.90;;;;;;7372233;19;20072;-60
2021/09/02 10:48:29;;;;;;;16.95;7.20;;;20.30;99.90;;;;;;7373334;19;20022;-60
2021/09/02 10:50:57;;;;;;;12.30;7.15;;;20.00;99.90;;;;;;7375578;19;20014;-60
2021/09/02 10:53:23;;;;;;;19.13;7.82;;;19.90;99.90;;;;;;7371976;19;20040;-60
2021/09/02 10:55:48;;;;;;;14.30;7.57;;;20.00;99.90;;;;;;7374110;19;20022;-59
2021/09/02 10:58:13;;;;;;;13.95;7.75;;;20.20;99.90;;;;;;7373614;19;20032;-59
2021/09/02 11:00:39;;;;;;;15.52;8.25;;;20.30;99.90;;;;;;7373697;19;20022;-59
2021/09/02 11:03:04;;;;;;;13.52;6.82;;;20.20;99.90;;;;;;7373798;19;20423;-60
2021/09/02 11:05:30;;;;;;;11.90;6.47;;;20.20;99.90;;;;;;7374290;19;20508;-60
2021/09/02 11:07:55;;;;;;;11.75;7.10;;;20.30;99.90;;;;;;7367619;19;20014;-59
2021/09/02 11:10:21;;;;;;;11.52;7.10;;;20.50;99.90;;;;;;7370306;19;20020;-61
2021/09/02 11:12:47;;;;;;;11.60;7.45;;;20.70;99.90;;;;;;7371493;19;20486;-61
2021/09/02 11:15:12;;;;;;;18.38;7.75;;;20.50;99.90;;;;;;7372702;19;20020;-60
2021/09/02 11:17:38;;;;;;;13.90;6.80;;;20.70;99.90;;;;;;7372205;19;20859;-62
2021/09/02 11:20:03;;;;;;;14.32;7.60;;;20.70;99.90;;;;;;7373389;19;20051;-61
2021/09/02 11:22:29;;;;;;;8.65;6.13;;;20.60;99.90;;;;;;7372978;19;20022;-64
2021/09/02 11:24:54;;;;;;;16.00;7.57;;;20.80;99.90;;;;;;7371997;19;20022;-64
2021/09/02 11:27:20;;;;;;;11.82;7.20;;;20.80;99.90;;;;;;7372130;19;20018;-64
2021/09/02 11:29:45;;;;;;;15.05;6.93;;;20.90;99.90;;;;;;7372462;19;20014;-64
2021/09/02 11:32:11;;;;;;;15.85;8.13;;;20.50;99.90;;;;;;7369313;19;20018;-64
2021/09/02 11:34:37;;;;;;;14.07;7.20;;;20.60;99.90;;;;;;7371322;19;20039;-64
2021/09/02 11:37:02;;;;;;;12.65;6.82;;;20.90;99.90;;;;;;7370506;19;20090;-64
2021/09/02 11:39:28;;;;;;;12.88;7.45;;;21.30;99.90;;;;;;7371592;19;20014;-63
2021/09/02 11:41:53;;;;;;;14.23;6.85;;;21.70;99.90;;;;;;7372973;19;20019;-63
2021/09/02 11:44:19;;;;;;;14.43;6.68;;;21.90;99.90;;;;;;7369127;19;20014;-63
2021/09/02 11:46:44;;;;;;;13.52;6.63;;;22.20;99.90;;;;;;7371295;19;20027;-63
2021/09/02 11:49:10;;;;;;;13.77;6.60;;;22.60;99.90;;;;;;7368790;19;20015;-64
2021/09/02 11:51:35;;;;;;;14.27;6.65;;;23.00;99.90;;;;;;7371950;19;20014;-63
2021/09/02 11:54:00;;;;;;;13.90;5.88;;;23.50;99.90;;;;;;7369852;19;20710;-63
2021/09/02 11:56:26;;;;;;;12.48;6.05;;;24.00;99.90;;;;;;7369957;19;20086;-64
2021/09/02 11:58:52;;;;;;;10.65;5.45;;;24.70;98.60;;;;;;7367003;19;20014;-64
2021/09/02 12:01:17;;;;;;;12.63;5.65;;;24.90;98.20;;;;;;7366598;19;20138;-64
2021/09/02 12:03:42;;;;;;;9.52;5.40;;;25.20;97.30;;;;;;7368869;19;20035;-64
2021/09/02 12:06:08;;;;;;;14.50;5.47;;;25.20;96.70;;;;;;7369538;19;20022;-64
2021/09/02 12:08:33;;;;;;;12.43;5.40;;;25.00;97.90;;;;;;7365767;19;20010;-64
2021/09/02 12:10:59;;;;;;;14.15;6.22;;;24.70;98.10;;;;;;7371460;19;20022;-64
2021/09/02 12:13:25;;;;;;;14.52;6.30;;;24.90;98.60;;;;;;7367499;19;20029;-64
2021/09/02 12:15:50;;;;;;;8.85;5.65;;;25.00;97.90;;;;;;7369802;19;20014;-65
2021/09/02 12:18:15;;;;;;;13.55;6.60;;;24.70;97.50;;;;;;7369086;19;20014;-64
2021/09/02 12:20:41;;;;;;;14.77;6.03;;;24.30;98.40;;;;;;7373110;19;20890;-64
2021/09/02 12:23:07;;;;;;;17.02;6.65;;;24.30;99.40;;;;;;7374508;19;20025;-64
2021/09/02 12:25:32;;;;;;;11.93;5.90;;;24.10;98.50;;;;;;7377242;19;20034;-64